sensor_id;sensor_type;location;lat;lon;timestamp;temperature;humidity
54684;DHT22;40582;53.100;6.686;2023-07-29T00:01:43;18.60;99.90
54684;DHT22;40582;53.100;6.686;2023-07-29T00:04:09;18.60;99.90
54684;DHT22;40582;53.100;6.686;2023-07-29T00:06:35;18.70;99.90
54684;DHT22;40582;53.100;6.686;2023-07-29T00:09:02;18.70;99.90
54684;DHT22;40582;53.100;6.686;2023-07-29T00:11:28;18.70;99.90
54684;DHT22;40582;53.100;6.686;2023-07-29T00:13:53;18.70;99.90
54684;DHT22;40582;53.100;6.686;2023-07-29T00:16:20;18.70;99.90
54684;DHT22;40582;53.100;6.686;2023-07-29T00:18:48;18.70;99.90
54684;DHT22;40582;53.100;6.686;2023-07-29T00:21:14;18.70;99.90
54684;DHT22;40582;53.100;6.686;2023-07-29T00:23:39;18.70;99.90
54684;DHT22;40582;53.100;6.686;2023-07-29T00:26:05;18.70;99.90
54684;DHT22;40582;53.100;6.686;2023-07-29T00:28:31;18.70;99.90
54684;DHT22;40582;53.100;6.686;2023-07-29T00:30:57;18.80;99.90
54684;DHT22;40582;53.100;6.686;2023-07-29T00:33:22;18.80;99.90
54684;DHT22;40582;53.100;6.686;2023-07-29T00:35:48;18.70;99.90
54684;DHT22;40582;53.100;6.686;2023-07-29T00:38:14;18.70;99.90
54684;DHT22;40582;53.100;6.686;2023-07-29T00:40:39;18.60;99.90
54684;DHT22;40582;53.100;6.686;2023-07-29T00:43:05;18.60;99.90
54684;DHT22;40582;53.100;6.686;2023-07-29T00:45:32;18.60;99.90
54684;DHT22;40582;53.100;6.686;2023-07-29T00:48:02;18.50;99.90
54684;DHT22;40582;53.100;6.686;2023-07-29T00:50:29;18.50;99.90
54684;DHT22;40582;53.100;6.686;2023-07-29T00:52:56;18.40;99.90
54684;DHT22;40582;53.100;6.686;2023-07-29T00:55:22;18.40;99.90
54684;DHT22;40582;53.100;6.686;2023-07-29T00:57:48;18.30;99.90
54684;DHT22;40582;53.100;6.686;2023-07-29T01:00:17;18.30;99.90
54684;DHT22;40582;53.100;6.686;2023-07-29T01:02:43;18.30;99.90
54684;DHT22;40582;53.100;6.686;2023-07-29T01:05:11;18.20;99.90
54684;DHT22;40582;53.100;6.686;2023-07-29T01:07:59;18.20;99.90
54684;DHT22;40582;53.100;6.686;2023-07-29T01:10:52;18.20;99.90
54684;DHT22;40582;53.100;6.686;2023-07-29T01:13:33;18.10;99.90
54684;DHT22;40582;53.100;6.686;2023-07-29T01:16:10;18.10;99.90
54684;DHT22;40582;53.100;6.686;2023-07-29T01:18:38;18.00;99.90
54684;DHT22;40582;53.100;6.686;2023-07-29T01:21:07;18.00;99.90
54684;DHT22;40582;53.100;6.686;2023-07-29T01:23:34;17.90;99.90
54684;DHT22;40582;53.100;6.686;2023-07-29T01:26:01;17.90;99.90
54684;DHT22;40582;53.100;6.686;2023-07-29T01:28:28;17.80;99.90
54684;DHT22;40582;53.100;6.686;2023-07-29T01:33:27;17.80;99.90
54684;DHT22;40582;53.100;6.686;2023-07-29T01:36:01;17.70;99.90
54684;DHT22;40582;53.100;6.686;2023-07-29T01:38:35;17.70;99.90
54684;DHT22;40582;53.100;6.686;2023-07-29T01:41:02;17.60;99.90
54684;DHT22;40582;53.100;6.686;2023-07-29T01:43:29;17.60;99.90
54684;DHT22;40582;53.100;6.686;2023-07-29T01:45:55;17.50;99.90
54684;DHT22;40582;53.100;6.686;2023-07-29T01:48:21;17.50;99.90
54684;DHT22;40582;53.100;6.686;2023-07-29T01:50:47;17.50;99.90
54684;DHT22;40582;53.100;6.686;2023-07-29T01:53:13;17.50;99.90
54684;DHT22;40582;53.100;6.686;2023-07-29T01:55:39;17.40;99.90
54684;DHT22;40582;53.100;6.686;2023-07-29T01:58:05;17.40;99.90
54684;DHT22;40582;53.100;6.686;2023-07-29T02:00:30;17.40;99.90
54684;DHT22;40582;53.100;6.686;2023-07-29T02:02:56;17.40;99.90
54684;DHT22;40582;53.100;6.686;2023-07-29T02:05:22;17.40;99.90
54684;DHT22;40582;53.100;6.686;2023-07-29T02:07:47;17.30;99.90
54684;DHT22;40582;53.100;6.686;2023-07-29T02:10:13;17.30;99.90
54684;DHT22;40582;53.100;6.686;2023-07-29T02:12:39;17.30;99.90
54684;DHT22;40582;53.100;6.686;2023-07-29T02:15:05;17.30;99.90
54684;DHT22;40582;53.100;6.686;2023-07-29T02:17:31;17.30;99.90
54684;DHT22;40582;53.100;6.686;2023-07-29T02:19:57;17.30;99.90
54684;DHT22;40582;53.100;6.686;2023-07-29T02:22:22;17.30;99.90
54684;DHT22;40582;53.100;6.686;2023-07-29T02:24:48;17.30;99.90
54684;DHT22;40582;53.100;6.686;2023-07-29T02:27:14;17.30;99.90
54684;DHT22;40582;53.100;6.686;2023-07-29T02:29:39;17.30;99.90
54684;DHT22;40582;53.100;6.686;2023-07-29T02:32:05;17.30;99.90
54684;DHT22;40582;53.100;6.686;2023-07-29T02:34:31;17.30;99.90
54684;DHT22;40582;53.100;6.686;2023-07-29T02:36:57;17.30;99.90
54684;DHT22;40582;53.100;6.686;2023-07-29T02:39:22;17.30;99.90
54684;DHT22;40582;53.100;6.686;2023-07-29T02:41:49;17.30;99.90
54684;DHT22;40582;53.100;6.686;2023-07-29T02:44:15;17.40;99.90
54684;DHT22;40582;53.100;6.686;2023-07-29T02:46:41;17.40;99.90
54684;DHT22;40582;53.100;6.686;2023-07-29T02:49:07;17.40;99.90
54684;DHT22;40582;53.100;6.686;2023-07-29T02:51:32;17.40;99.90
54684;DHT22;40582;53.100;6.686;2023-07-29T02:53:58;17.30;99.90
54684;DHT22;40582;53.100;6.686;2023-07-29T02:56:24;17.30;99.90
54684;DHT22;40582;53.100;6.686;2023-07-29T02:58:50;17.20;99.90
54684;DHT22;40582;53.100;6.686;2023-07-29T03:01:17;17.20;99.90
54684;DHT22;40582;53.100;6.686;2023-07-29T03:03:43;17.20;99.90
54684;DHT22;40582;53.100;6.686;2023-07-29T03:06:11;17.20;99.90
54684;DHT22;40582;53.100;6.686;2023-07-29T03:08:37;17.20;99.90
54684;DHT22;40582;53.100;6.686;2023-07-29T03:11:10;17.20;99.90
54684;DHT22;40582;53.100;6.686;2023-07-29T03:13:37;17.20;99.90
54684;DHT22;40582;53.100;6.686;2023-07-29T03:16:07;17.20;99.90
54684;DHT22;40582;53.100;6.686;2023-07-29T03:18:33;17.20;99.90
54684;DHT22;40582;53.100;6.686;2023-07-29T03:20:59;17.20;99.90
54684;DHT22;40582;53.100;6.686;2023-07-29T03:23:24;17.30;99.90
54684;DHT22;40582;53.100;6.686;2023-07-29T03:25:50;17.30;99.90
54684;DHT22;40582;53.100;6.686;2023-07-29T03:28:25;17.30;99.90
54684;DHT22;40582;53.100;6.686;2023-07-29T03:30:56;17.20;99.90
54684;DHT22;40582;53.100;6.686;2023-07-29T03:33:22;17.20;99.90
54684;DHT22;40582;53.100;6.686;2023-07-29T03:35:48;17.20;99.90
54684;DHT22;40582;53.100;6.686;2023-07-29T03:38:14;17.20;99.90
54684;DHT22;40582;53.100;6.686;2023-07-29T03:40:41;17.10;99.90
54684;DHT22;40582;53.100;6.686;2023-07-29T03:43:07;17.10;99.90
54684;DHT22;40582;53.100;6.686;2023-07-29T03:45:34;17.00;99.90
54684;DHT22;40582;53.100;6.686;2023-07-29T03:48:00;17.00;99.90
54684;DHT22;40582;53.100;6.686;2023-07-29T03:50:26;17.00;99.90
54684;DHT22;40582;53.100;6.686;2023-07-29T03:52:52;17.00;99.90
54684;DHT22;40582;53.100;6.686;2023-07-29T03:55:18;17.00;99.90
54684;DHT22;40582;53.100;6.686;2023-07-29T03:57:43;17.00;99.90
54684;DHT22;40582;53.100;6.686;2023-07-29T04:00:09;17.00;99.90
54684;DHT22;40582;53.100;6.686;2023-07-29T04:02:36;17.00;99.90
54684;DHT22;40582;53.100;6.686;2023-07-29T04:05:05;17.00;99.90
54684;DHT22;40582;53.100;6.686;2023-07-29T04:07:34;16.90;99.90
54684;DHT22;40582;53.100;6.686;2023-07-29T04:10:00;17.00;99.90
54684;DHT22;40582;53.100;6.686;2023-07-29T04:12:26;16.90;99.90
54684;DHT22;40582;53.100;6.686;2023-07-29T04:14:52;17.00;99.90
54684;DHT22;40582;53.100;6.686;2023-07-29T04:17:18;17.00;99.90
54684;DHT22;40582;53.100;6.686;2023-07-29T04:19:43;17.00;99.90
54684;DHT22;40582;53.100;6.686;2023-07-29T04:22:09;17.10;99.90
54684;DHT22;40582;53.100;6.686;2023-07-29T04:24:35;17.10;99.90
54684;DHT22;40582;53.100;6.686;2023-07-29T04:27:00;17.10;99.90
54684;DHT22;40582;53.100;6.686;2023-07-29T04:29:26;17.20;99.90
54684;DHT22;40582;53.100;6.686;2023-07-29T04:31:52;17.20;99.90
54684;DHT22;40582;53.100;6.686;2023-07-29T04:34:19;17.30;99.90
54684;DHT22;40582;53.100;6.686;2023-07-29T04:36:45;17.40;99.90
54684;DHT22;40582;53.100;6.686;2023-07-29T04:39:11;17.40;99.90
54684;DHT22;40582;53.100;6.686;2023-07-29T04:41:36;17.40;99.90
54684;DHT22;40582;53.100;6.686;2023-07-29T04:44:02;17.60;99.90
54684;DHT22;40582;53.100;6.686;2023-07-29T04:46:28;17.60;99.90
54684;DHT22;40582;53.100;6.686;2023-07-29T04:48:54;17.70;99.90
54684;DHT22;40582;53.100;6.686;2023-07-29T04:51:19;17.90;99.90
54684;DHT22;40582;53.100;6.686;2023-07-29T04:53:45;17.90;99.90
54684;DHT22;40582;53.100;6.686;2023-07-29T04:56:11;18.00;99.90
54684;DHT22;40582;53.100;6.686;2023-07-29T04:58:36;18.10;99.90
54684;DHT22;40582;53.100;6.686;2023-07-29T05:01:03;18.10;99.90
54684;DHT22;40582;53.100;6.686;2023-07-29T05:03:29;18.10;99.90
54684;DHT22;40582;53.100;6.686;2023-07-29T05:05:55;18.20;99.90
54684;DHT22;40582;53.100;6.686;2023-07-29T05:08:22;18.10;99.90
54684;DHT22;40582;53.100;6.686;2023-07-29T05:10:51;18.20;99.90
54684;DHT22;40582;53.100;6.686;2023-07-29T05:13:18;18.20;99.90
54684;DHT22;40582;53.100;6.686;2023-07-29T05:15:44;18.20;99.90
54684;DHT22;40582;53.100;6.686;2023-07-29T05:18:10;18.10;99.90
54684;DHT22;40582;53.100;6.686;2023-07-29T05:20:36;18.10;99.90
54684;DHT22;40582;53.100;6.686;2023-07-29T05:23:02;18.10;99.90
54684;DHT22;40582;53.100;6.686;2023-07-29T05:25:27;18.10;99.90
54684;DHT22;40582;53.100;6.686;2023-07-29T05:27:53;18.20;99.90
54684;DHT22;40582;53.100;6.686;2023-07-29T05:30:19;18.10;99.90
54684;DHT22;40582;53.100;6.686;2023-07-29T05:32:44;18.10;99.90
54684;DHT22;40582;53.100;6.686;2023-07-29T05:35:10;18.10;99.90
54684;DHT22;40582;53.100;6.686;2023-07-29T05:37:39;18.10;99.90
54684;DHT22;40582;53.100;6.686;2023-07-29T05:40:08;18.20;99.90
54684;DHT22;40582;53.100;6.686;2023-07-29T05:42:36;18.20;99.90
54684;DHT22;40582;53.100;6.686;2023-07-29T05:45:02;18.20;99.90
54684;DHT22;40582;53.100;6.686;2023-07-29T05:47:28;18.20;99.90
54684;DHT22;40582;53.100;6.686;2023-07-29T05:49:53;18.30;99.90
54684;DHT22;40582;53.100;6.686;2023-07-29T05:52:20;18.30;99.90
54684;DHT22;40582;53.100;6.686;2023-07-29T05:54:45;18.30;99.90
54684;DHT22;40582;53.100;6.686;2023-07-29T05:57:11;18.40;99.90
54684;DHT22;40582;53.100;6.686;2023-07-29T05:59:38;18.40;99.90
54684;DHT22;40582;53.100;6.686;2023-07-29T06:02:04;18.40;99.90
54684;DHT22;40582;53.100;6.686;2023-07-29T06:04:30;18.40;99.90
54684;DHT22;40582;53.100;6.686;2023-07-29T06:06:55;18.40;99.90
54684;DHT22;40582;53.100;6.686;2023-07-29T06:09:24;18.40;99.90
54684;DHT22;40582;53.100;6.686;2023-07-29T06:11:51;18.50;99.90
54684;DHT22;40582;53.100;6.686;2023-07-29T06:14:16;18.50;99.90
54684;DHT22;40582;53.100;6.686;2023-07-29T06:16:42;18.60;99.90
54684;DHT22;40582;53.100;6.686;2023-07-29T06:19:08;18.70;99.90
54684;DHT22;40582;53.100;6.686;2023-07-29T06:21:34;18.80;99.90
54684;DHT22;40582;53.100;6.686;2023-07-29T06:24:01;18.80;99.90
54684;DHT22;40582;53.100;6.686;2023-07-29T06:26:26;19.00;99.90
54684;DHT22;40582;53.100;6.686;2023-07-29T06:28:52;19.10;99.90
54684;DHT22;40582;53.100;6.686;2023-07-29T06:31:18;19.20;99.90
54684;DHT22;40582;53.100;6.686;2023-07-29T06:33:43;19.30;99.90
54684;DHT22;40582;53.100;6.686;2023-07-29T06:36:09;19.30;99.90
54684;DHT22;40582;53.100;6.686;2023-07-29T06:38:35;19.50;99.90
54684;DHT22;40582;53.100;6.686;2023-07-29T06:41:00;20.70;99.90
54684;DHT22;40582;53.100;6.686;2023-07-29T06:43:26;22.20;99.90
54684;DHT22;40582;53.100;6.686;2023-07-29T06:45:52;24.00;99.90
54684;DHT22;40582;53.100;6.686;2023-07-29T06:48:18;25.30;99.90
54684;DHT22;40582;53.100;6.686;2023-07-29T06:50:44;25.00;99.90
54684;DHT22;40582;53.100;6.686;2023-07-29T06:53:10;24.80;99.90
54684;DHT22;40582;53.100;6.686;2023-07-29T06:55:35;24.30;99.90
54684;DHT22;40582;53.100;6.686;2023-07-29T06:58:01;23.80;99.90
54684;DHT22;40582;53.100;6.686;2023-07-29T07:00:27;23.40;99.90
54684;DHT22;40582;53.100;6.686;2023-07-29T07:02:53;23.10;99.90
54684;DHT22;40582;53.100;6.686;2023-07-29T07:05:19;23.00;99.90
54684;DHT22;40582;53.100;6.686;2023-07-29T07:07:44;22.90;99.90
54684;DHT22;40582;53.100;6.686;2023-07-29T07:10:10;22.80;99.90
54684;DHT22;40582;53.100;6.686;2023-07-29T07:12:35;22.80;99.90
54684;DHT22;40582;53.100;6.686;2023-07-29T07:15:01;22.90;99.90
54684;DHT22;40582;53.100;6.686;2023-07-29T07:17:27;22.90;99.90
54684;DHT22;40582;53.100;6.686;2023-07-29T07:19:53;23.00;99.90
54684;DHT22;40582;53.100;6.686;2023-07-29T07:22:19;23.40;99.90
54684;DHT22;40582;53.100;6.686;2023-07-29T07:24:44;23.10;99.90
54684;DHT22;40582;53.100;6.686;2023-07-29T07:27:10;22.70;99.90
54684;DHT22;40582;53.100;6.686;2023-07-29T07:29:36;22.30;99.90
54684;DHT22;40582;53.100;6.686;2023-07-29T07:32:01;22.00;99.90
54684;DHT22;40582;53.100;6.686;2023-07-29T07:34:27;21.80;99.90
54684;DHT22;40582;53.100;6.686;2023-07-29T07:36:53;21.70;99.90
54684;DHT22;40582;53.100;6.686;2023-07-29T07:39:19;21.60;99.90
54684;DHT22;40582;53.100;6.686;2023-07-29T07:41:44;21.70;99.90
54684;DHT22;40582;53.100;6.686;2023-07-29T07:44:11;21.70;99.90
54684;DHT22;40582;53.100;6.686;2023-07-29T07:46:41;22.10;99.90
54684;DHT22;40582;53.100;6.686;2023-07-29T07:49:07;23.50;99.90
54684;DHT22;40582;53.100;6.686;2023-07-29T07:51:32;24.90;99.90
54684;DHT22;40582;53.100;6.686;2023-07-29T07:53:58;25.20;99.90
54684;DHT22;40582;53.100;6.686;2023-07-29T07:56:23;25.80;99.90
54684;DHT22;40582;53.100;6.686;2023-07-29T07:58:49;25.50;99.90
54684;DHT22;40582;53.100;6.686;2023-07-29T08:01:15;25.30;99.90
54684;DHT22;40582;53.100;6.686;2023-07-29T08:03:40;25.30;99.90
54684;DHT22;40582;53.100;6.686;2023-07-29T08:06:06;24.90;99.90
54684;DHT22;40582;53.100;6.686;2023-07-29T08:08:32;24.90;99.90
54684;DHT22;40582;53.100;6.686;2023-07-29T08:10:57;25.30;99.90
54684;DHT22;40582;53.100;6.686;2023-07-29T08:13:24;25.00;99.90
54684;DHT22;40582;53.100;6.686;2023-07-29T08:15:51;25.10;99.90
54684;DHT22;40582;53.100;6.686;2023-07-29T08:18:17;25.30;99.90
54684;DHT22;40582;53.100;6.686;2023-07-29T08:20:56;25.30;99.90
54684;DHT22;40582;53.100;6.686;2023-07-29T08:23:29;24.80;99.90
54684;DHT22;40582;53.100;6.686;2023-07-29T08:25:57;24.90;99.90
54684;DHT22;40582;53.100;6.686;2023-07-29T08:28:32;25.60;99.90
54684;DHT22;40582;53.100;6.686;2023-07-29T08:30:58;26.20;99.90
54684;DHT22;40582;53.100;6.686;2023-07-29T08:33:24;26.20;99.90
54684;DHT22;40582;53.100;6.686;2023-07-29T08:35:50;26.30;99.90
54684;DHT22;40582;53.100;6.686;2023-07-29T08:38:16;26.20;99.90
54684;DHT22;40582;53.100;6.686;2023-07-29T08:41:06;27.20;99.90
54684;DHT22;40582;53.100;6.686;2023-07-29T08:43:34;27.30;99.20
54684;DHT22;40582;53.100;6.686;2023-07-29T08:46:02;26.70;99.90
54684;DHT22;40582;53.100;6.686;2023-07-29T08:48:40;26.60;99.90
54684;DHT22;40582;53.100;6.686;2023-07-29T08:51:08;26.40;99.90
54684;DHT22;40582;53.100;6.686;2023-07-29T08:53:35;26.10;99.90
54684;DHT22;40582;53.100;6.686;2023-07-29T08:56:01;26.40;99.90
54684;DHT22;40582;53.100;6.686;2023-07-29T08:58:27;26.00;99.90
54684;DHT22;40582;53.100;6.686;2023-07-29T09:00:54;25.60;99.90
54684;DHT22;40582;53.100;6.686;2023-07-29T09:03:20;25.10;99.90
54684;DHT22;40582;53.100;6.686;2023-07-29T09:05:46;24.80;99.90
54684;DHT22;40582;53.100;6.686;2023-07-29T09:08:12;24.80;99.90
54684;DHT22;40582;53.100;6.686;2023-07-29T09:10:38;25.20;99.90
54684;DHT22;40582;53.100;6.686;2023-07-29T09:13:04;25.00;99.90
54684;DHT22;40582;53.100;6.686;2023-07-29T09:15:32;24.90;99.90
54684;DHT22;40582;53.100;6.686;2023-07-29T09:17:59;24.50;99.90
54684;DHT22;40582;53.100;6.686;2023-07-29T09:20:28;24.10;99.90
54684;DHT22;40582;53.100;6.686;2023-07-29T09:22:55;23.90;99.90
54684;DHT22;40582;53.100;6.686;2023-07-29T09:25:28;23.70;99.90
54684;DHT22;40582;53.100;6.686;2023-07-29T09:28:11;24.10;99.90
54684;DHT22;40582;53.100;6.686;2023-07-29T09:30:39;24.90;99.90
54684;DHT22;40582;53.100;6.686;2023-07-29T09:33:05;25.30;99.90
54684;DHT22;40582;53.100;6.686;2023-07-29T09:35:34;25.60;99.90
54684;DHT22;40582;53.100;6.686;2023-07-29T09:38:04;25.40;99.90
54684;DHT22;40582;53.100;6.686;2023-07-29T09:40:40;25.10;99.90
54684;DHT22;40582;53.100;6.686;2023-07-29T09:43:08;25.10;99.90
54684;DHT22;40582;53.100;6.686;2023-07-29T09:45:35;25.30;99.90
54684;DHT22;40582;53.100;6.686;2023-07-29T09:48:02;25.40;99.90
54684;DHT22;40582;53.100;6.686;2023-07-29T09:50:28;25.50;99.90
54684;DHT22;40582;53.100;6.686;2023-07-29T09:52:55;25.50;99.90
54684;DHT22;40582;53.100;6.686;2023-07-29T09:55:22;26.00;99.90
54684;DHT22;40582;53.100;6.686;2023-07-29T09:57:56;26.10;99.90
54684;DHT22;40582;53.100;6.686;2023-07-29T10:00:23;26.10;99.90
54684;DHT22;40582;53.100;6.686;2023-07-29T10:02:49;26.00;99.90
54684;DHT22;40582;53.100;6.686;2023-07-29T10:05:16;26.00;99.90
54684;DHT22;40582;53.100;6.686;2023-07-29T10:07:42;25.80;99.90
54684;DHT22;40582;53.100;6.686;2023-07-29T10:10:08;25.80;99.90
54684;DHT22;40582;53.100;6.686;2023-07-29T10:12:35;25.90;99.90
54684;DHT22;40582;53.100;6.686;2023-07-29T10:15:05;25.90;99.90
54684;DHT22;40582;53.100;6.686;2023-07-29T10:17:34;25.50;99.90
54684;DHT22;40582;53.100;6.686;2023-07-29T10:20:01;25.50;99.90
54684;DHT22;40582;53.100;6.686;2023-07-29T10:22:35;25.70;99.90
54684;DHT22;40582;53.100;6.686;2023-07-29T10:25:16;25.50;99.90
54684;DHT22;40582;53.100;6.686;2023-07-29T10:28:03;25.40;99.90
54684;DHT22;40582;53.100;6.686;2023-07-29T10:30:30;25.20;99.90
54684;DHT22;40582;53.100;6.686;2023-07-29T10:33:01;25.10;99.90
54684;DHT22;40582;53.100;6.686;2023-07-29T10:35:27;25.00;99.90
54684;DHT22;40582;53.100;6.686;2023-07-29T10:37:53;25.00;99.90
54684;DHT22;40582;53.100;6.686;2023-07-29T10:40:19;25.10;99.90
54684;DHT22;40582;53.100;6.686;2023-07-29T10:43:10;25.30;99.90
54684;DHT22;40582;53.100;6.686;2023-07-29T10:45:37;25.40;99.90
54684;DHT22;40582;53.100;6.686;2023-07-29T10:48:39;25.30;99.90
54684;DHT22;40582;53.100;6.686;2023-07-29T10:53:47;25.40;99.90
54684;DHT22;40582;53.100;6.686;2023-07-29T10:56:13;25.50;99.90
54684;DHT22;40582;53.100;6.686;2023-07-29T10:58:38;25.60;99.90
54684;DHT22;40582;53.100;6.686;2023-07-29T11:01:13;25.60;99.90
54684;DHT22;40582;53.100;6.686;2023-07-29T11:03:38;25.40;99.90
54684;DHT22;40582;53.100;6.686;2023-07-29T11:06:04;25.30;99.90
54684;DHT22;40582;53.100;6.686;2023-07-29T11:08:31;25.10;99.90
54684;DHT22;40582;53.100;6.686;2023-07-29T11:11:08;25.00;99.90
54684;DHT22;40582;53.100;6.686;2023-07-29T11:13:36;24.90;99.90
54684;DHT22;40582;53.100;6.686;2023-07-29T11:16:03;25.00;99.90
54684;DHT22;40582;53.100;6.686;2023-07-29T11:18:35;24.70;99.90
54684;DHT22;40582;53.100;6.686;2023-07-29T11:21:04;24.10;99.90
54684;DHT22;40582;53.100;6.686;2023-07-29T11:23:35;23.50;99.90
54684;DHT22;40582;53.100;6.686;2023-07-29T11:26:02;23.30;99.90
54684;DHT22;40582;53.100;6.686;2023-07-29T11:28:28;23.40;99.90
54684;DHT22;40582;53.100;6.686;2023-07-29T11:30:55;23.70;99.90
54684;DHT22;40582;53.100;6.686;2023-07-29T11:33:22;24.30;99.90
54684;DHT22;40582;53.100;6.686;2023-07-29T11:35:49;25.00;99.90
54684;DHT22;40582;53.100;6.686;2023-07-29T11:38:16;25.30;99.90
54684;DHT22;40582;53.100;6.686;2023-07-29T11:40:42;25.30;99.90
54684;DHT22;40582;53.100;6.686;2023-07-29T11:43:08;25.20;99.90
54684;DHT22;40582;53.100;6.686;2023-07-29T11:45:34;25.40;99.90
54684;DHT22;40582;53.100;6.686;2023-07-29T11:48:01;25.30;99.90
54684;DHT22;40582;53.100;6.686;2023-07-29T11:50:27;25.40;99.90
54684;DHT22;40582;53.100;6.686;2023-07-29T11:52:53;25.30;99.90
54684;DHT22;40582;53.100;6.686;2023-07-29T11:55:19;25.60;99.90
54684;DHT22;40582;53.100;6.686;2023-07-29T11:57:49;25.70;99.90
54684;DHT22;40582;53.100;6.686;2023-07-29T12:00:16;25.70;99.90
54684;DHT22;40582;53.100;6.686;2023-07-29T12:02:44;25.40;99.90
54684;DHT22;40582;53.100;6.686;2023-07-29T12:05:12;25.30;99.90
54684;DHT22;40582;53.100;6.686;2023-07-29T12:07:39;25.30;99.90
54684;DHT22;40582;53.100;6.686;2023-07-29T12:10:05;25.20;99.90
54684;DHT22;40582;53.100;6.686;2023-07-29T12:12:31;25.00;99.90
54684;DHT22;40582;53.100;6.686;2023-07-29T12:14:57;24.70;99.90
54684;DHT22;40582;53.100;6.686;2023-07-29T12:17:23;24.40;99.90
54684;DHT22;40582;53.100;6.686;2023-07-29T12:19:49;24.00;99.90
54684;DHT22;40582;53.100;6.686;2023-07-29T12:22:18;23.70;99.90
54684;DHT22;40582;53.100;6.686;2023-07-29T12:24:44;23.70;99.90
54684;DHT22;40582;53.100;6.686;2023-07-29T12:27:12;23.70;99.90
54684;DHT22;40582;53.100;6.686;2023-07-29T12:29:44;24.10;99.90
54684;DHT22;40582;53.100;6.686;2023-07-29T12:32:11;24.50;99.90
54684;DHT22;40582;53.100;6.686;2023-07-29T12:34:38;24.70;99.90
54684;DHT22;40582;53.100;6.686;2023-07-29T12:37:05;24.90;99.90
54684;DHT22;40582;53.100;6.686;2023-07-29T12:39:39;25.00;99.90
54684;DHT22;40582;53.100;6.686;2023-07-29T12:42:06;25.00;99.90
54684;DHT22;40582;53.100;6.686;2023-07-29T12:44:33;24.90;99.90
54684;DHT22;40582;53.100;6.686;2023-07-29T12:47:03;24.70;99.90
54684;DHT22;40582;53.100;6.686;2023-07-29T12:49:29;24.40;99.90
54684;DHT22;40582;53.100;6.686;2023-07-29T12:51:59;24.30;99.90
54684;DHT22;40582;53.100;6.686;2023-07-29T12:54:24;24.40;99.90
54684;DHT22;40582;53.100;6.686;2023-07-29T12:56:50;24.60;99.90
54684;DHT22;40582;53.100;6.686;2023-07-29T12:59:16;24.70;99.90
54684;DHT22;40582;53.100;6.686;2023-07-29T13:01:42;24.80;99.90
54684;DHT22;40582;53.100;6.686;2023-07-29T13:04:09;24.70;99.90
54684;DHT22;40582;53.100;6.686;2023-07-29T13:06:34;24.70;99.90
54684;DHT22;40582;53.100;6.686;2023-07-29T13:09:00;24.80;99.90
54684;DHT22;40582;53.100;6.686;2023-07-29T13:11:26;24.80;99.90
54684;DHT22;40582;53.100;6.686;2023-07-29T13:13:51;24.50;99.90
54684;DHT22;40582;53.100;6.686;2023-07-29T13:16:17;24.30;99.90
54684;DHT22;40582;53.100;6.686;2023-07-29T13:18:43;24.00;99.90
54684;DHT22;40582;53.100;6.686;2023-07-29T13:21:09;23.70;99.90
54684;DHT22;40582;53.100;6.686;2023-07-29T13:23:35;23.80;99.90
54684;DHT22;40582;53.100;6.686;2023-07-29T13:26:01;24.00;99.90
54684;DHT22;40582;53.100;6.686;2023-07-29T13:28:27;24.40;99.90
54684;DHT22;40582;53.100;6.686;2023-07-29T13:30:52;24.60;99.90
54684;DHT22;40582;53.100;6.686;2023-07-29T13:33:18;24.70;99.90
54684;DHT22;40582;53.100;6.686;2023-07-29T13:35:43;25.20;99.90
54684;DHT22;40582;53.100;6.686;2023-07-29T13:38:09;25.30;99.90
54684;DHT22;40582;53.100;6.686;2023-07-29T13:40:36;25.20;99.90
54684;DHT22;40582;53.100;6.686;2023-07-29T13:43:02;25.30;99.90
54684;DHT22;40582;53.100;6.686;2023-07-29T13:45:28;25.40;99.90
54684;DHT22;40582;53.100;6.686;2023-07-29T13:47:53;25.40;99.90
54684;DHT22;40582;53.100;6.686;2023-07-29T13:50:19;25.40;99.90
54684;DHT22;40582;53.100;6.686;2023-07-29T13:52:45;25.30;99.90
54684;DHT22;40582;53.100;6.686;2023-07-29T13:55:11;25.30;99.00
54684;DHT22;40582;53.100;6.686;2023-07-29T13:57:37;25.40;97.80
54684;DHT22;40582;53.100;6.686;2023-07-29T14:00:05;25.30;96.80
54684;DHT22;40582;53.100;6.686;2023-07-29T14:02:31;25.20;96.80
54684;DHT22;40582;53.100;6.686;2023-07-29T14:04:57;25.00;96.90
54684;DHT22;40582;53.100;6.686;2023-07-29T14:07:22;24.90;97.20
54684;DHT22;40582;53.100;6.686;2023-07-29T14:09:48;24.80;97.20
54684;DHT22;40582;53.100;6.686;2023-07-29T14:12:14;24.90;96.80
54684;DHT22;40582;53.100;6.686;2023-07-29T14:14:44;25.00;96.60
54684;DHT22;40582;53.100;6.686;2023-07-29T14:17:09;25.10;96.30
54684;DHT22;40582;53.100;6.686;2023-07-29T14:19:36;25.10;96.00
54684;DHT22;40582;53.100;6.686;2023-07-29T14:22:02;25.10;96.90
54684;DHT22;40582;53.100;6.686;2023-07-29T14:24:28;25.20;97.60
54684;DHT22;40582;53.100;6.686;2023-07-29T14:26:53;25.10;98.00
54684;DHT22;40582;53.100;6.686;2023-07-29T14:29:19;24.90;98.70
54684;DHT22;40582;53.100;6.686;2023-07-29T14:31:45;24.70;99.30
54684;DHT22;40582;53.100;6.686;2023-07-29T14:34:10;24.60;99.30
54684;DHT22;40582;53.100;6.686;2023-07-29T14:36:36;24.40;99.60
54684;DHT22;40582;53.100;6.686;2023-07-29T14:39:02;24.30;99.80
54684;DHT22;40582;53.100;6.686;2023-07-29T14:41:29;24.10;99.90
54684;DHT22;40582;53.100;6.686;2023-07-29T14:43:54;24.00;99.90
54684;DHT22;40582;53.100;6.686;2023-07-29T14:46:20;23.90;99.90
54684;DHT22;40582;53.100;6.686;2023-07-29T14:48:45;23.90;99.90
54684;DHT22;40582;53.100;6.686;2023-07-29T14:51:13;24.00;99.90
54684;DHT22;40582;53.100;6.686;2023-07-29T14:53:39;24.30;99.90
54684;DHT22;40582;53.100;6.686;2023-07-29T14:56:04;24.40;99.90
54684;DHT22;40582;53.100;6.686;2023-07-29T14:58:30;24.50;99.40
54684;DHT22;40582;53.100;6.686;2023-07-29T15:00:56;24.40;99.10
54684;DHT22;40582;53.100;6.686;2023-07-29T15:03:23;24.50;99.00
54684;DHT22;40582;53.100;6.686;2023-07-29T15:05:49;24.60;98.60
54684;DHT22;40582;53.100;6.686;2023-07-29T15:08:15;24.50;98.20
54684;DHT22;40582;53.100;6.686;2023-07-29T15:10:40;24.40;98.00
54684;DHT22;40582;53.100;6.686;2023-07-29T15:13:10;24.40;98.40
54684;DHT22;40582;53.100;6.686;2023-07-29T15:15:35;24.10;98.40
54684;DHT22;40582;53.100;6.686;2023-07-29T15:18:01;24.00;98.60
54684;DHT22;40582;53.100;6.686;2023-07-29T15:20:27;24.10;99.00
54684;DHT22;40582;53.100;6.686;2023-07-29T15:22:52;24.00;98.80
54684;DHT22;40582;53.100;6.686;2023-07-29T15:25:18;23.80;98.90
54684;DHT22;40582;53.100;6.686;2023-07-29T15:27:44;23.60;98.60
54684;DHT22;40582;53.100;6.686;2023-07-29T15:30:09;23.50;98.90
54684;DHT22;40582;53.100;6.686;2023-07-29T15:32:37;23.50;99.20
54684;DHT22;40582;53.100;6.686;2023-07-29T15:35:03;23.40;99.30